Time;durP1;ratioP1;P1;durP2;ratioP2;P2;SDS_P1;SDS_P2;PMS_P1;PMS_P2;Temp;Humidity;BMP_temperature;BMP_pressure;BME280_temperature;BME280_humidity;BME280_pressure;Samples;Min_cycle;Max_cycle;Signal;HPM_P1;HPM_P2
2023/02/25 00:01:43;;;;;;;20.20;12.10;;;;;;;;;;5060650;28;20452;-60
2023/02/25 00:04:08;;;;;;;19.15;11.88;;;;;;;;;;5047661;28;20405;-61
2023/02/25 00:06:33;;;;;;;18.40;11.83;;;;;;;;;;5061444;28;20045;-61
2023/02/25 00:08:59;;;;;;;19.23;11.90;;;;;;;;;;5065971;28;20106;-61
2023/02/25 00:11:25;;;;;;;16.88;11.05;;;;;;;;;;5046483;28;20290;-61
2023/02/25 00:13:50;;;;;;;18.48;11.32;;;;;;;;;;5040534;28;20032;-61
2023/02/25 00:16:16;;;;;;;16.65;11.10;;;;;;;;;;5034794;28;20363;-61
2023/02/25 00:18:45;;;;;;;16.58;11.15;;;;;;;;;;5057883;28;20611;-61
2023/02/25 00:21:16;;;;;;;17.10;10.85;;;;;;;;;;5051970;28;20094;-61
2023/02/25 00:23:45;;;;;;;18.75;10.88;;;;;;;;;;5058827;28;20029;-61
2023/02/25 00:26:10;;;;;;;16.20;10.65;;;;;;;;;;5046478;28;20115;-61
2023/02/25 00:28:35;;;;;;;16.52;11.23;;;;;;;;;;5034461;28;20120;-61
2023/02/25 00:31:14;;;;;;;15.65;10.85;;;;;;;;;;5032026;28;20128;-61
2023/02/25 00:33:40;;;;;;;16.25;11.30;;;;;;;;;;5029973;28;20041;-61
2023/02/25 00:36:07;;;;;;;16.90;11.18;;;;;;;;;;5034390;28;20442;-61
2023/02/25 00:38:34;;;;;;;14.85;10.43;;;;;;;;;;5064914;28;20033;-61
2023/02/25 00:41:03;;;;;;;14.98;11.15;;;;;;;;;;5052687;28;20540;-61
2023/02/25 00:43:29;;;;;;;14.48;10.65;;;;;;;;;;5041491;28;20036;-61
2023/02/25 00:45:54;;;;;;;15.40;10.40;;;;;;;;;;5037129;28;20091;-60
2023/02/25 00:48:21;;;;;;;15.67;10.40;;;;;;;;;;5064629;28;20040;-59
2023/02/25 00:50:46;;;;;;;16.80;10.65;;;;;;;;;;5046657;28;20363;-61
2023/02/25 00:53:11;;;;;;;14.93;10.37;;;;;;;;;;5052773;28;20499;-61
2023/02/25 00:55:37;;;;;;;17.20;11.03;;;;;;;;;;5061948;28;20746;-61
2023/02/25 00:58:02;;;;;;;14.95;10.10;;;;;;;;;;5058733;28;20294;-61
2023/02/25 01:00:28;;;;;;;15.40;10.73;;;;;;;;;;5057684;28;20036;-61
2023/02/25 01:02:54;;;;;;;15.30;10.32;;;;;;;;;;5050944;28;20183;-61
2023/02/25 01:05:19;;;;;;;15.90;10.50;;;;;;;;;;5049149;28;20032;-61
2023/02/25 01:07:45;;;;;;;16.77;10.65;;;;;;;;;;5026550;28;20049;-61
2023/02/25 01:10:10;;;;;;;16.63;10.40;;;;;;;;;;5057352;28;20049;-61
2023/02/25 01:12:36;;;;;;;15.32;10.35;;;;;;;;;;5063919;28;20043;-61
2023/02/25 01:15:01;;;;;;;14.82;10.00;;;;;;;;;;5045399;28;20033;-61
2023/02/25 01:17:26;;;;;;;15.23;10.32;;;;;;;;;;5056767;28;20040;-61
2023/02/25 01:19:51;;;;;;;14.13;10.13;;;;;;;;;;5056361;28;20829;-61
2023/02/25 01:22:17;;;;;;;14.40;9.57;;;;;;;;;;5057210;28;20872;-60
2023/02/25 01:24:42;;;;;;;14.80;10.20;;;;;;;;;;5037254;28;20433;-61
2023/02/25 01:27:07;;;;;;;14.23;10.23;;;;;;;;;;5040506;28;20363;-60
2023/02/25 01:29:34;;;;;;;14.95;10.38;;;;;;;;;;5041633;28;20701;-60
2023/02/25 01:32:00;;;;;;;14.13;9.57;;;;;;;;;;5033460;28;20040;-60
2023/02/25 01:34:25;;;;;;;13.35;10.10;;;;;;;;;;5063687;28;20041;-61
2023/02/25 01:36:51;;;;;;;14.20;10.18;;;;;;;;;;5028732;28;20401;-61
2023/02/25 01:39:19;;;;;;;13.20;10.07;;;;;;;;;;5047948;28;20835;-60
2023/02/25 01:41:47;;;;;;;14.85;10.55;;;;;;;;;;5008877;28;20073;-60
2023/02/25 01:44:16;;;;;;;14.13;9.93;;;;;;;;;;5041006;28;20035;-62
2023/02/25 01:46:45;;;;;;;12.57;9.65;;;;;;;;;;5001692;28;20123;-61
2023/02/25 01:49:12;;;;;;;14.45;10.15;;;;;;;;;;5027212;28;20013;-60
2023/02/25 01:51:37;;;;;;;14.57;9.50;;;;;;;;;;5041150;28;20052;-61
2023/02/25 01:54:03;;;;;;;14.13;9.73;;;;;;;;;;5027648;28;20060;-61
2023/02/25 01:56:28;;;;;;;14.85;10.25;;;;;;;;;;5031240;28;20271;-60
2023/02/25 01:58:53;;;;;;;12.70;9.13;;;;;;;;;;5060035;28;20479;-61
2023/02/25 02:01:19;;;;;;;12.50;9.93;;;;;;;;;;5052940;28;20294;-61
2023/02/25 02:03:44;;;;;;;13.82;9.75;;;;;;;;;;5025749;28;20275;-60
2023/02/25 02:06:11;;;;;;;13.70;10.27;;;;;;;;;;5037006;28;20031;-61
2023/02/25 02:08:36;;;;;;;13.52;9.30;;;;;;;;;;5056998;28;20405;-60
2023/02/25 02:11:02;;;;;;;13.65;9.90;;;;;;;;;;5019622;28;20966;-61
2023/02/25 02:13:28;;;;;;;12.63;9.27;;;;;;;;;;5013515;28;20025;-60
2023/02/25 02:16:13;;;;;;;13.60;9.55;;;;;;;;;;5055605;28;20111;-61
2023/02/25 02:18:38;;;;;;;13.15;8.88;;;;;;;;;;5007562;28;20028;-61
2023/02/25 02:21:10;;;;;;;12.77;8.93;;;;;;;;;;5060463;28;20052;-61
2023/02/25 02:23:54;;;;;;;13.68;9.40;;;;;;;;;;5038201;28;20572;-61
2023/02/25 02:26:29;;;;;;;12.38;9.10;;;;;;;;;;5060867;28;20068;-62
2023/02/25 02:28:57;;;;;;;13.07;9.40;;;;;;;;;;5050719;28;20060;-61
2023/02/25 02:31:22;;;;;;;11.65;8.70;;;;;;;;;;5061685;28;20029;-61
2023/02/25 02:34:06;;;;;;;12.73;9.03;;;;;;;;;;5052636;28;20139;-62
2023/02/25 02:36:46;;;;;;;12.43;8.95;;;;;;;;;;5038231;28;20039;-61
2023/02/25 02:39:19;;;;;;;14.60;9.43;;;;;;;;;;5045357;28;20036;-61
2023/02/25 02:41:49;;;;;;;12.55;9.25;;;;;;;;;;5054829;28;20053;-61
2023/02/25 02:44:25;;;;;;;10.93;8.45;;;;;;;;;;5011439;28;20044;-60
2023/02/25 02:46:52;;;;;;;12.00;8.50;;;;;;;;;;5038673;28;20067;-61
2023/02/25 02:49:24;;;;;;;12.60;9.65;;;;;;;;;;5028326;28;20021;-64
2023/02/25 02:51:57;;;;;;;11.48;8.57;;;;;;;;;;5025765;28;20502;-61
2023/02/25 02:54:23;;;;;;;12.77;9.18;;;;;;;;;;5012077;28;20131;-62
2023/02/25 02:56:49;;;;;;;11.98;8.88;;;;;;;;;;5027926;28;20104;-61
2023/02/25 02:59:17;;;;;;;11.73;8.60;;;;;;;;;;5026405;28;20540;-61
2023/02/25 03:01:46;;;;;;;11.73;8.93;;;;;;;;;;5028338;28;20033;-61
2023/02/25 03:04:13;;;;;;;11.45;8.30;;;;;;;;;;5031520;28;20017;-61
2023/02/25 03:06:39;;;;;;;10.70;8.35;;;;;;;;;;5032121;28;20033;-61
2023/02/25 03:09:21;;;;;;;11.35;8.50;;;;;;;;;;5009279;28;20467;-61
2023/02/25 03:11:46;;;;;;;11.48;8.85;;;;;;;;;;5012704;28;20546;-61
2023/02/25 03:14:12;;;;;;;11.60;8.60;;;;;;;;;;5047976;28;20029;-61
2023/02/25 03:16:38;;;;;;;10.73;8.55;;;;;;;;;;5039120;28;20817;-61
2023/02/25 03:19:12;;;;;;;12.15;8.77;;;;;;;;;;5041297;28;20056;-61
2023/02/25 03:21:39;;;;;;;12.38;8.85;;;;;;;;;;5044788;28;20101;-61
2023/02/25 03:24:04;;;;;;;11.38;8.68;;;;;;;;;;5048150;28;20492;-61
2023/02/25 03:26:30;;;;;;;11.80;8.77;;;;;;;;;;5041726;28;20035;-61
2023/02/25 03:28:56;;;;;;;11.88;8.57;;;;;;;;;;5033883;28;20107;-61
2023/02/25 03:31:23;;;;;;;10.98;8.20;;;;;;;;;;5047913;28;20078;-62
2023/02/25 03:33:51;;;;;;;11.07;7.95;;;;;;;;;;5056558;28;20060;-61
2023/02/25 03:36:35;;;;;;;10.90;8.45;;;;;;;;;;5065085;28;20029;-62
2023/02/25 03:39:05;;;;;;;11.30;8.43;;;;;;;;;;5058128;28;20045;-62
2023/02/25 03:41:30;;;;;;;;;;;;;;;;;;5025905;28;20052;-61
2023/02/25 03:43:55;;;;;;;11.52;8.25;;;;;;;;;;5051132;28;19932;-61
2023/02/25 03:46:21;;;;;;;10.73;8.20;;;;;;;;;;5038900;28;20029;-61
2023/02/25 03:48:46;;;;;;;11.48;8.68;;;;;;;;;;5056456;28;20091;-61
2023/02/25 03:51:13;;;;;;;11.63;8.47;;;;;;;;;;5044449;28;20412;-61
2023/02/25 03:53:38;;;;;;;10.80;8.07;;;;;;;;;;5029265;28;20278;-62
2023/02/25 03:56:04;;;;;;;12.00;8.70;;;;;;;;;;5028946;28;20044;-61
2023/02/25 03:58:30;;;;;;;10.65;7.75;;;;;;;;;;5040918;28;20270;-61
2023/02/25 04:00:55;;;;;;;10.30;8.15;;;;;;;;;;5060320;28;20445;-61
2023/02/25 04:03:21;;;;;;;11.43;8.17;;;;;;;;;;5056003;28;20032;-61
2023/02/25 04:05:47;;;;;;;10.07;7.68;;;;;;;;;;5054591;28;20378;-62
2023/02/25 04:08:15;;;;;;;9.73;7.50;;;;;;;;;;5049616;28;20061;-62
2023/02/25 04:10:42;;;;;;;11.07;8.30;;;;;;;;;;5048146;28;20044;-61
2023/02/25 04:13:08;;;;;;;9.80;7.47;;;;;;;;;;5020867;28;20033;-61
2023/02/25 04:15:33;;;;;;;10.05;7.32;;;;;;;;;;5063626;28;20100;-61
2023/02/25 04:17:58;;;;;;;11.07;7.50;;;;;;;;;;5039909;28;20099;-62
2023/02/25 04:20:23;;;;;;;11.33;7.57;;;;;;;;;;5060092;28;20352;-61
2023/02/25 04:22:49;;;;;;;8.93;6.67;;;;;;;;;;5049803;28;20037;-60
2023/02/25 04:25:14;;;;;;;9.63;7.73;;;;;;;;;;5056352;28;20060;-61
2023/02/25 04:27:39;;;;;;;10.07;7.47;;;;;;;;;;5049245;28;20096;-61
2023/02/25 04:30:05;;;;;;;7.87;6.60;;;;;;;;;;5046643;28;20044;-61
2023/02/25 04:32:30;;;;;;;9.27;7.07;;;;;;;;;;5056183;28;20049;-60
2023/02/25 04:34:57;;;;;;;9.33;7.20;;;;;;;;;;5059534;28;20045;-62
2023/02/25 04:37:22;;;;;;;8.25;6.53;;;;;;;;;;5016877;28;20103;-61
2023/02/25 04:39:47;;;;;;;9.53;6.43;;;;;;;;;;5027897;23;20058;-66
2023/02/25 04:42:13;;;;;;;9.20;6.67;;;;;;;;;;5022672;28;20391;-62
2023/02/25 04:44:38;;;;;;;8.63;6.80;;;;;;;;;;5023602;28;20275;-61
2023/02/25 04:47:03;;;;;;;10.27;6.90;;;;;;;;;;5023586;28;20058;-60
2023/02/25 04:49:28;;;;;;;8.48;6.93;;;;;;;;;;5023775;28;20037;-62
2023/02/25 04:51:54;;;;;;;8.40;6.30;;;;;;;;;;5022078;28;20026;-59
2023/02/25 04:54:19;;;;;;;8.37;6.50;;;;;;;;;;5022469;28;20037;-60
2023/02/25 04:56:44;;;;;;;8.02;6.60;;;;;;;;;;5019720;28;20288;-59
2023/02/25 04:59:10;;;;;;;7.80;6.20;;;;;;;;;;5012082;28;20351;-62
2023/02/25 05:01:35;;;;;;;8.73;6.38;;;;;;;;;;5021406;28;20076;-60
2023/02/25 05:04:01;;;;;;;9.15;6.55;;;;;;;;;;5016450;28;20751;-63
2023/02/25 05:06:26;;;;;;;8.95;6.57;;;;;;;;;;5018652;28;20038;-62
2023/02/25 05:08:52;;;;;;;8.20;6.32;;;;;;;;;;5021424;28;20114;-61
2023/02/25 05:11:17;;;;;;;9.10;7.07;;;;;;;;;;5020788;28;20037;-62
2023/02/25 05:13:42;;;;;;;8.40;6.60;;;;;;;;;;5021850;28;20120;-62
2023/02/25 05:16:09;;;;;;;8.03;6.57;;;;;;;;;;5010792;28;20482;-62
2023/02/25 05:18:37;;;;;;;8.63;6.88;;;;;;;;;;5022827;28;20763;-63
2023/02/25 05:21:03;;;;;;;7.70;5.88;;;;;;;;;;5022703;28;20136;-64
2023/02/25 05:23:28;;;;;;;8.65;6.22;;;;;;;;;;5025738;28;20174;-62
2023/02/25 05:25:55;;;;;;;7.35;5.70;;;;;;;;;;5008467;28;20143;-63
2023/02/25 05:28:20;;;;;;;7.28;6.00;;;;;;;;;;5010070;28;20060;-62
2023/02/25 05:30:46;;;;;;;9.32;5.80;;;;;;;;;;5008673;28;20048;-60
2023/02/25 05:33:12;;;;;;;7.80;6.13;;;;;;;;;;5007170;28;20231;-63
2023/02/25 05:35:38;;;;;;;7.25;6.15;;;;;;;;;;5007901;28;20367;-61
2023/02/25 05:38:03;;;;;;;7.38;5.60;;;;;;;;;;5011288;28;20053;-63
2023/02/25 05:40:28;;;;;;;7.63;5.73;;;;;;;;;;5029119;28;20409;-62
2023/02/25 05:42:54;;;;;;;7.70;5.73;;;;;;;;;;5029871;28;20445;-61
2023/02/25 05:45:19;;;;;;;7.80;5.85;;;;;;;;;;5030722;28;20519;-66
2023/02/25 05:47:44;;;;;;;7.63;6.20;;;;;;;;;;5028224;28;20205;-63
2023/02/25 05:50:10;;;;;;;8.23;5.93;;;;;;;;;;5055010;23;20057;-62
2023/02/25 05:52:35;;;;;;;7.13;5.72;;;;;;;;;;5045251;28;20047;-61
2023/02/25 05:55:01;;;;;;;7.80;6.10;;;;;;;;;;5046821;28;20063;-62
2023/02/25 05:57:26;;;;;;;8.43;5.90;;;;;;;;;;5049837;28;20036;-62
2023/02/25 05:59:51;;;;;;;7.55;5.85;;;;;;;;;;5045859;28;20057;-60
2023/02/25 06:02:16;;;;;;;7.50;5.97;;;;;;;;;;5048890;28;20138;-63
2023/02/25 06:04:42;;;;;;;7.57;5.57;;;;;;;;;;5031665;28;20442;-62
2023/02/25 06:07:07;;;;;;;7.97;6.00;;;;;;;;;;5048748;28;21378;-60
2023/02/25 06:09:33;;;;;;;7.00;5.57;;;;;;;;;;5030609;28;20363;-61
2023/02/25 06:11:58;;;;;;;6.82;5.55;;;;;;;;;;5061097;28;20826;-64
2023/02/25 06:14:24;;;;;;;7.80;5.70;;;;;;;;;;5057244;28;20037;-65
2023/02/25 06:16:50;;;;;;;7.87;6.13;;;;;;;;;;5052826;28;20071;-63
2023/02/25 06:19:16;;;;;;;7.47;5.40;;;;;;;;;;5060314;28;20344;-66
2023/02/25 06:21:41;;;;;;;8.20;5.70;;;;;;;;;;5036452;28;20045;-60
2023/02/25 06:24:06;;;;;;;6.77;5.57;;;;;;;;;;5052100;28;20276;-66
2023/02/25 06:26:31;;;;;;;7.93;5.43;;;;;;;;;;5034370;28;20370;-67
2023/02/25 06:28:57;;;;;;;6.97;5.70;;;;;;;;;;5052041;28;20433;-62
2023/02/25 06:31:23;;;;;;;7.05;5.75;;;;;;;;;;5034446;28;20419;-62
2023/02/25 06:33:52;;;;;;;7.25;5.75;;;;;;;;;;5037465;28;20040;-64
2023/02/25 06:36:19;;;;;;;7.15;5.60;;;;;;;;;;5051877;28;20120;-63
2023/02/25 06:38:44;;;;;;;7.05;5.60;;;;;;;;;;5052239;28;20037;-65
2023/02/25 06:41:15;;;;;;;7.45;5.75;;;;;;;;;;5050968;28;20048;-62
2023/02/25 06:43:40;;;;;;;8.00;5.90;;;;;;;;;;5032296;28;20103;-63
2023/02/25 06:46:06;;;;;;;7.40;5.03;;;;;;;;;;5052419;28;20052;-64
2023/02/25 06:48:31;;;;;;;6.85;5.70;;;;;;;;;;5051657;28;20094;-65
2023/02/25 06:50:57;;;;;;;7.03;5.67;;;;;;;;;;5035487;28;20156;-63
2023/02/25 06:53:23;;;;;;;7.63;5.70;;;;;;;;;;5048911;28;20302;-62
2023/02/25 06:55:48;;;;;;;7.75;5.60;;;;;;;;;;5048403;28;20445;-62
2023/02/25 06:58:13;;;;;;;6.93;5.60;;;;;;;;;;5047711;28;20037;-63
2023/02/25 07:00:41;;;;;;;6.57;4.83;;;;;;;;;;5049873;28;20048;-63
2023/02/25 07:03:08;;;;;;;6.85;5.15;;;;;;;;;;5052934;28;21027;-60
2023/02/25 07:05:33;;;;;;;6.55;5.03;;;;;;;;;;5036046;28;20033;-60
2023/02/25 07:07:59;;;;;;;7.07;5.45;;;;;;;;;;5049756;28;20035;-61
2023/02/25 07:10:24;;;;;;;6.95;5.45;;;;;;;;;;5050130;28;20035;-64
2023/02/25 07:12:50;;;;;;;7.93;5.40;;;;;;;;;;5039905;28;20025;-61
2023/02/25 07:15:15;;;;;;;6.60;5.70;;;;;;;;;;5049635;28;20483;-60
2023/02/25 07:17:40;;;;;;;6.97;5.53;;;;;;;;;;5031436;28;20044;-61
2023/02/25 07:20:06;;;;;;;7.93;5.47;;;;;;;;;;5048572;28;20802;-61
2023/02/25 07:22:31;;;;;;;7.55;5.60;;;;;;;;;;5030972;28;20911;-61
2023/02/25 07:24:56;;;;;;;7.30;5.60;;;;;;;;;;5034630;28;20162;-62
2023/02/25 07:27:22;;;;;;;6.30;4.67;;;;;;;;;;5050685;28;20092;-63
2023/02/25 07:29:47;;;;;;;7.97;5.72;;;;;;;;;;5032328;28;20286;-62
2023/02/25 07:32:12;;;;;;;10.30;5.20;;;;;;;;;;5043501;28;20032;-61
2023/02/25 07:34:38;;;;;;;7.03;5.20;;;;;;;;;;5051562;28;20025;-64
2023/02/25 07:37:03;;;;;;;7.25;5.50;;;;;;;;;;5063671;28;20259;-64
2023/02/25 07:39:28;;;;;;;6.87;5.17;;;;;;;;;;5053077;28;20461;-62
2023/02/25 07:41:53;;;;;;;8.80;5.53;;;;;;;;;;5047462;28;20476;-64
2023/02/25 07:44:19;;;;;;;7.07;5.53;;;;;;;;;;5048623;28;20313;-63
2023/02/25 07:46:44;;;;;;;7.80;5.45;;;;;;;;;;5035701;28;20271;-61
2023/02/25 07:49:09;;;;;;;6.87;5.63;;;;;;;;;;5030402;28;20020;-61
2023/02/25 07:51:34;;;;;;;6.78;5.50;;;;;;;;;;5031568;28;20294;-60
2023/02/25 07:54:00;;;;;;;7.57;5.25;;;;;;;;;;5048666;28;20028;-61
2023/02/25 07:56:26;;;;;;;7.50;5.28;;;;;;;;;;5048024;28;20080;-61
2023/02/25 07:58:51;;;;;;;7.50;5.10;;;;;;;;;;5050621;28;20353;-62
2023/02/25 08:01:30;;;;;;;8.17;4.80;;;;;;;;;;5037798;28;20035;-63
2023/02/25 08:03:59;;;;;;;12.13;6.10;;;;;;;;;;5051060;28;20368;-63
2023/02/25 08:06:24;;;;;;;9.70;5.60;;;;;;;;;;5048934;28;20072;-61
2023/02/25 08:08:50;;;;;;;10.45;5.55;;;;;;;;;;5049433;28;20127;-63
2023/02/25 08:11:16;;;;;;;12.00;5.82;;;;;;;;;;5048598;28;20033;-63
2023/02/25 08:13:41;;;;;;;7.15;5.50;;;;;;;;;;5049320;28;21882;-61
2023/02/25 08:16:07;;;;;;;9.48;5.90;;;;;;;;;;5049844;28;20048;-62
2023/02/25 08:18:32;;;;;;;9.93;5.28;;;;;;;;;;5036124;28;20040;-63
2023/02/25 08:20:58;;;;;;;7.23;5.10;;;;;;;;;;5036444;28;20053;-62
2023/02/25 08:23:24;;;;;;;9.53;5.57;;;;;;;;;;5048933;28;20284;-61
2023/02/25 08:25:53;;;;;;;7.60;5.40;;;;;;;;;;5029395;28;20810;-63
2023/02/25 08:28:19;;;;;;;8.00;5.75;;;;;;;;;;5031403;28;20109;-63
2023/02/25 08:30:44;;;;;;;8.73;5.20;;;;;;;;;;5048358;28;20032;-62
2023/02/25 08:33:09;;;;;;;7.55;5.63;;;;;;;;;;5018441;28;20120;-64
2023/02/25 08:35:35;;;;;;;6.70;4.82;;;;;;;;;;5046675;28;20025;-60
2023/02/25 08:38:00;;;;;;;11.20;5.30;;;;;;;;;;5031012;28;20051;-61
2023/02/25 08:40:26;;;;;;;9.00;5.75;;;;;;;;;;5046134;28;20083;-64
2023/02/25 08:42:51;;;;;;;7.53;5.10;;;;;;;;;;5047056;28;20136;-63
2023/02/25 08:45:16;;;;;;;6.83;4.87;;;;;;;;;;5046771;28;20302;-61
2023/02/25 08:47:41;;;;;;;7.10;4.90;;;;;;;;;;5047917;28;20037;-62
2023/02/25 08:50:08;;;;;;;7.70;5.37;;;;;;;;;;5047510;28;20072;-62
2023/02/25 08:52:33;;;;;;;8.50;5.28;;;;;;;;;;5048025;28;20616;-60
2023/02/25 08:55:00;;;;;;;7.55;4.85;;;;;;;;;;5049413;28;20123;-63
2023/02/25 08:57:25;;;;;;;8.63;5.10;;;;;;;;;;5047045;28;20993;-63
2023/02/25 08:59:50;;;;;;;8.02;5.15;;;;;;;;;;5046740;28;20592;-62
2023/02/25 09:02:15;;;;;;;7.25;4.85;;;;;;;;;;5046220;28;20044;-61
2023/02/25 09:04:41;;;;;;;6.95;5.20;;;;;;;;;;5048188;28;20067;-61
2023/02/25 09:07:06;;;;;;;7.70;5.40;;;;;;;;;;5049273;28;21127;-62
2023/02/25 09:09:32;;;;;;;8.80;5.13;;;;;;;;;;5057564;28;20398;-62
2023/02/25 09:11:58;;;;;;;9.13;5.90;;;;;;;;;;5050844;28;20283;-62
2023/02/25 09:14:23;;;;;;;9.85;5.03;;;;;;;;;;5050122;28;20094;-60
2023/02/25 09:16:48;;;;;;;7.20;5.80;;;;;;;;;;5037394;28;20051;-62
2023/02/25 09:19:16;;;;;;;7.37;5.73;;;;;;;;;;5059875;28;20646;-61
2023/02/25 09:21:41;;;;;;;7.32;5.32;;;;;;;;;;5051294;28;20291;-62
2023/02/25 09:24:06;;;;;;;9.65;5.68;;;;;;;;;;5054782;28;20074;-64
2023/02/25 09:26:32;;;;;;;7.13;5.25;;;;;;;;;;5057432;28;20698;-63
2023/02/25 09:29:01;;;;;;;8.32;5.93;;;;;;;;;;5058876;28;20696;-62
2023/02/25 09:31:26;;;;;;;8.15;5.05;;;;;;;;;;5062357;28;20037;-63
2023/02/25 09:33:51;;;;;;;9.05;5.20;;;;;;;;;;5056799;28;20118;-62
2023/02/25 09:36:17;;;;;;;6.93;5.00;;;;;;;;;;5061473;28;20104;-63
2023/02/25 09:38:42;;;;;;;7.15;4.95;;;;;;;;;;5060327;28;20303;-63
2023/02/25 09:41:26;;;;;;;8.30;5.13;;;;;;;;;;5031073;28;20303;-63
2023/02/25 09:43:57;;;;;;;6.97;5.03;;;;;;;;;;5056792;28;20099;-62
2023/02/25 09:46:23;;;;;;;8.05;5.05;;;;;;;;;;5056211;28;20135;-63
2023/02/25 09:48:52;;;;;;;8.70;5.70;;;;;;;;;;5030234;28;20116;-62
2023/02/25 09:51:19;;;;;;;8.57;5.53;;;;;;;;;;5030884;28;20290;-60
2023/02/25 09:53:47;;;;;;;7.80;5.20;;;;;;;;;;5060537;28;20139;-61
2023/02/25 09:56:21;;;;;;;9.25;5.85;;;;;;;;;;5045726;28;20039;-63
2023/02/25 09:58:49;;;;;;;8.77;5.20;;;;;;;;;;5060832;28;20363;-64
2023/02/25 10:01:17;;;;;;;7.55;5.50;;;;;;;;;;5060698;28;20517;-62
2023/02/25 10:03:45;;;;;;;7.45;5.38;;;;;;;;;;5037121;28;20477;-63
2023/02/25 10:06:21;;;;;;;8.10;5.43;;;;;;;;;;5061972;28;20551;-64
2023/02/25 10:08:52;;;;;;;9.95;5.85;;;;;;;;;;5039649;28;20580;-66
2023/02/25 10:11:21;;;;;;;9.45;5.43;;;;;;;;;;5055881;28;20025;-64
2023/02/25 10:13:49;;;;;;;8.38;5.35;;;;;;;;;;5042133;28;20132;-62
2023/02/25 10:16:15;;;;;;;8.65;5.18;;;;;;;;;;5051321;28;20029;-64
2023/02/25 10:18:43;;;;;;;9.27;5.67;;;;;;;;;;5051709;28;20481;-63
2023/02/25 10:21:27;;;;;;;9.95;5.72;;;;;;;;;;5048280;28;20882;-63
2023/02/25 10:24:04;;;;;;;14.40;6.05;;;;;;;;;;5047387;28;20272;-62
2023/02/25 10:26:31;;;;;;;11.07;6.13;;;;;;;;;;5048537;28;20803;-63
2023/02/25 10:29:00;;;;;;;9.73;5.75;;;;;;;;;;5035914;28;20119;-62
2023/02/25 10:31:27;;;;;;;10.32;5.60;;;;;;;;;;5052218;28;20045;-62
2023/02/25 10:33:53;;;;;;;9.73;5.63;;;;;;;;;;5058285;28;20041;-63
2023/02/25 10:36:19;;;;;;;10.32;6.43;;;;;;;;;;5037742;28;20075;-62
2023/02/25 10:38:48;;;;;;;7.72;5.38;;;;;;;;;;5046499;28;20098;-61
2023/02/25 10:41:14;;;;;;;8.77;5.40;;;;;;;;;;5053120;28;20086;-62
2023/02/25 10:43:39;;;;;;;9.02;5.70;;;;;;;;;;5047407;28;20450;-62
2023/02/25 10:46:23;;;;;;;8.55;5.90;;;;;;;;;;5037299;28;20497;-62
2023/02/25 10:48:55;;;;;;;8.25;5.55;;;;;;;;;;5061741;28;20117;-64
2023/02/25 10:51:20;;;;;;;11.15;5.32;;;;;;;;;;5059603;28;20115;-61
2023/02/25 10:53:51;;;;;;;8.57;5.53;;;;;;;;;;5049644;28;20524;-63
2023/02/25 10:56:17;;;;;;;10.43;5.70;;;;;;;;;;5054127;28;20090;-63
2023/02/25 10:58:43;;;;;;;8.90;5.70;;;;;;;;;;5051108;28;20099;-61
2023/02/25 11:01:20;;;;;;;8.50;5.40;;;;;;;;;;5051603;28;20307;-60
2023/02/25 11:03:53;;;;;;;10.48;5.75;;;;;;;;;;5047909;28;20044;-63
2023/02/25 11:06:21;;;;;;;8.98;5.35;;;;;;;;;;5033950;28;20064;-62
2023/02/25 11:08:46;;;;;;;9.38;5.90;;;;;;;;;;5052961;28;20025;-61
2023/02/25 11:11:28;;;;;;;9.60;6.15;;;;;;;;;;5024556;28;20041;-62
2023/02/25 11:13:55;;;;;;;9.27;5.43;;;;;;;;;;5051860;28;20049;-61
2023/02/25 11:16:20;;;;;;;7.55;5.60;;;;;;;;;;5050777;28;20033;-62
2023/02/25 11:18:45;;;;;;;8.38;5.60;;;;;;;;;;5051738;28;20108;-61
2023/02/25 11:21:12;;;;;;;10.77;5.90;;;;;;;;;;5036721;28;20065;-61
2023/02/25 11:23:40;;;;;;;8.65;5.80;;;;;;;;;;5052111;28;20100;-62
2023/02/25 11:26:05;;;;;;;9.10;5.45;;;;;;;;;;5061336;28;20048;-62
2023/02/25 11:28:31;;;;;;;7.20;5.15;;;;;;;;;;5057344;28;20401;-63
2023/02/25 11:31:16;;;;;;;10.52;5.25;;;;;;;;;;5064119;28;20036;-63
2023/02/25 11:33:42;;;;;;;8.10;5.38;;;;;;;;;;5045980;28;20468;-61
2023/02/25 11:36:08;;;;;;;9.05;5.50;;;;;;;;;;5061866;28;20150;-64
2023/02/25 11:38:33;;;;;;;7.90;5.10;;;;;;;;;;5046559;28;20429;-63
2023/02/25 11:40:59;;;;;;;7.47;5.35;;;;;;;;;;5061843;28;20029;-62
2023/02/25 11:43:26;;;;;;;7.67;4.97;;;;;;;;;;5063886;28;20476;-61
2023/02/25 11:45:55;;;;;;;8.85;5.55;;;;;;;;;;5055161;28;20413;-63
2023/02/25 11:48:24;;;;;;;7.82;5.43;;;;;;;;;;5064407;28;20053;-63
2023/02/25 11:50:49;;;;;;;8.40;5.68;;;;;;;;;;5062039;28;20048;-61
2023/02/25 11:53:20;;;;;;;9.25;5.53;;;;;;;;;;5043449;28;20032;-62
2023/02/25 11:55:48;;;;;;;7.55;5.20;;;;;;;;;;5052700;28;20025;-61
2023/02/25 11:58:22;;;;;;;8.68;5.18;;;;;;;;;;5064121;28;20028;-62
2023/02/25 12:00:51;;;;;;;9.13;5.30;;;;;;;;;;5050493;28;20044;-62
2023/02/25 12:03:22;;;;;;;9.63;5.53;;;;;;;;;;5063295;28;20036;-63
2023/02/25 12:06:17;;;;;;;9.40;5.53;;;;;;;;;;5052994;28;20104;-61
2023/02/25 12:08:42;;;;;;;28.58;6.82;;;;;;;;;;4994205;28;20058;-62
2023/02/25 12:11:18;;;;;;;15.68;5.88;;;;;;;;;;5053784;28;20049;-63
2023/02/25 12:13:47;;;;;;;14.95;5.00;;;;;;;;;;5051863;28;20033;-64
2023/02/25 12:16:31;;;;;;;13.55;4.72;;;;;;;;;;5055259;28;20510;-62
2023/02/25 12:19:16;;;;;;;16.35;4.90;;;;;;;;;;5061394;28;20044;-66
2023/02/25 12:21:42;;;;;;;13.20;4.95;;;;;;;;;;5050948;28;20048;-65
2023/02/25 12:24:13;;;;;;;19.77;5.87;;;;;;;;;;5029389;28;20098;-64
2023/02/25 12:26:57;;;;;;;19.58;5.60;;;;;;;;;;5064995;28;20297;-65
2023/02/25 12:29:41;;;;;;;16.70;5.03;;;;;;;;;;5060495;28;20073;-62
2023/02/25 12:32:18;;;;;;;18.20;4.93;;;;;;;;;;5064878;28;20067;-64
2023/02/25 12:34:49;;;;;;;20.10;4.40;;;;;;;;;;5030198;28;20044;-66
2023/02/25 12:37:18;;;;;;;17.65;4.85;;;;;;;;;;5051553;28;20514;-64
2023/02/25 12:39:44;;;;;;;14.68;4.28;;;;;;;;;;5035140;28;20037;-63
2023/02/25 12:42:12;;;;;;;16.10;4.87;;;;;;;;;;5050286;28;20060;-64
2023/02/25 12:45:00;;;;;;;15.95;4.38;;;;;;;;;;5048651;28;20306;-64
2023/02/25 12:47:29;;;;;;;16.27;4.78;;;;;;;;;;5034217;28;20290;-64
2023/02/25 12:50:12;;;;;;;13.57;4.05;;;;;;;;;;5048026;28;20053;-62
2023/02/25 12:52:50;;;;;;;17.10;4.65;;;;;;;;;;5047511;28;20087;-63
2023/02/25 12:55:19;;;;;;;17.35;4.68;;;;;;;;;;5031156;28;20186;-65
2023/02/25 12:58:02;;;;;;;14.77;4.18;;;;;;;;;;5048771;28;20183;-61
2023/02/25 13:00:35;;;;;;;13.60;4.00;;;;;;;;;;5048324;28;20037;-61
2023/02/25 13:03:14;;;;;;;17.67;4.40;;;;;;;;;;5030825;28;20044;-60
2023/02/25 13:05:57;;;;;;;14.35;4.22;;;;;;;;;;5049257;28;20037;-62
2023/02/25 13:08:32;;;;;;;18.65;4.60;;;;;;;;;;5048832;28;20115;-61
2023/02/25 13:11:00;;;;;;;16.65;3.53;;;;;;;;;;5047747;28;20527;-64
2023/02/25 13:13:45;;;;;;;14.68;3.83;;;;;;;;;;5048559;28;20048;-62
2023/02/25 13:16:13;;;;;;;14.50;3.38;;;;;;;;;;5032971;28;20051;-64
2023/02/25 13:18:38;;;;;;;18.73;4.25;;;;;;;;;;5047650;28;20036;-61
2023/02/25 13:21:13;;;;;;;15.23;4.03;;;;;;;;;;5047497;28;20040;-62
2023/02/25 13:23:39;;;;;;;14.45;3.97;;;;;;;;;;5029585;28;20036;-61
2023/02/25 13:26:14;;;;;;;16.88;4.35;;;;;;;;;;5049251;28;20511;-64
2023/02/25 13:28:43;;;;;;;15.93;4.30;;;;;;;;;;5029784;28;20101;-66
2023/02/25 13:31:27;;;;;;;9.68;3.75;;;;;;;;;;5050374;28;20508;-62
2023/02/25 13:34:02;;;;;;;14.52;4.72;;;;;;;;;;5050183;28;20068;-61
2023/02/25 13:36:47;;;;;;;20.10;5.18;;;;;;;;;;5031945;28;20535;-64
2023/02/25 13:39:15;;;;;;;12.63;3.85;;;;;;;;;;5036115;28;20619;-62
2023/02/25 13:41:50;;;;;;;17.85;4.03;;;;;;;;;;5047280;28;20083;-61
2023/02/25 13:44:18;;;;;;;13.63;4.07;;;;;;;;;;5049194;28;20043;-62
2023/02/25 13:46:58;;;;;;;14.50;3.78;;;;;;;;;;5034036;28;20067;-62
2023/02/25 13:49:23;;;;;;;13.23;4.10;;;;;;;;;;5035026;28;20666;-60
2023/02/25 13:52:01;;;;;;;13.40;3.25;;;;;;;;;;5047064;28;20044;-61
2023/02/25 13:54:49;;;;;;;13.25;4.57;;;;;;;;;;5048010;28;20049;-62
2023/02/25 13:57:18;;;;;;;15.93;4.13;;;;;;;;;;5010292;28;20048;-64
2023/02/25 13:59:52;;;;;;;15.18;3.97;;;;;;;;;;5048696;28;20044;-64
2023/02/25 14:02:36;;;;;;;17.58;4.90;;;;;;;;;;5048988;28;20048;-63
2023/02/25 14:05:03;;;;;;;16.10;4.55;;;;;;;;;;5046985;28;20048;-63
2023/02/25 14:07:37;;;;;;;41.90;7.35;;;;;;;;;;5028886;28;20029;-62
2023/02/25 14:10:08;;;;;;;29.65;7.13;;;;;;;;;;5034997;28;20059;-64
2023/02/25 14:12:40;;;;;;;30.85;7.50;;;;;;;;;;5049643;28;20064;-64
2023/02/25 14:15:21;;;;;;;28.17;7.55;;;;;;;;;;5049962;28;20036;-63
2023/02/25 14:17:46;;;;;;;24.30;6.57;;;;;;;;;;5058289;28;20115;-69
2023/02/25 14:20:15;;;;;;;20.20;6.03;;;;;;;;;;5049124;28;20124;-66
2023/02/25 14:22:40;;;;;;;16.83;5.25;;;;;;;;;;5061781;28;20310;-64
2023/02/25 14:25:19;;;;;;;17.30;4.63;;;;;;;;;;5064686;28;20043;-62
2023/02/25 14:27:50;;;;;;;17.17;5.10;;;;;;;;;;5042874;28;20304;-65
2023/02/25 14:30:16;;;;;;;18.65;5.22;;;;;;;;;;5059341;28;20048;-66
2023/02/25 14:33:01;;;;;;;16.55;4.93;;;;;;;;;;5062035;28;20021;-63
2023/02/25 14:35:34;;;;;;;19.92;5.18;;;;;;;;;;5033937;28;20304;-64
2023/02/25 14:38:09;;;;;;;18.60;4.80;;;;;;;;;;5037239;28;20162;-70
2023/02/25 14:40:41;;;;;;;16.70;4.35;;;;;;;;;;5023884;28;20032;-67
2023/02/25 14:43:06;;;;;;;17.63;5.05;;;;;;;;;;5060884;28;20139;-69